Time;durP1;ratioP1;P1;durP2;ratioP2;P2;SDS_P1;SDS_P2;PMS_P1;PMS_P2;Temp;Humidity;BMP_temperature;BMP_pressure;BME280_temperature;BME280_humidity;BME280_pressure;Samples;Min_cycle;Max_cycle;Signal;HPM_P1;HPM_P2
2023/06/30 00:01:48;;;;;;;;;;;;;;;23.93;46.66;101397.97;5069866;28;20431;-72
2023/06/30 00:04:17;;;;;;;;;;;;;;;23.94;46.41;101398.81;5061786;28;20421;-72
2023/06/30 00:06:49;;;;;;;;;;;;;;;23.93;46.30;101399.84;5063665;28;19912;-72
2023/06/30 00:09:15;;;;;;;;;;;;;;;23.93;46.41;101399.84;5054874;28;19923;-72
2023/06/30 00:11:40;;;;;;;;;;;;;;;23.92;46.50;101400.88;5060990;28;19940;-72
2023/06/30 00:14:05;;;;;;;;;;;;;;;23.91;46.35;101401.88;5064967;28;19920;-72
2023/06/30 00:16:31;;;;;;;;;;;;;;;23.91;46.19;101404.59;5060835;28;19925;-72
2023/06/30 00:18:57;;;;;;;;;;;;;;;23.91;46.33;101396.47;5064193;28;20302;-72
2023/06/30 00:21:22;;;;;;;;;;;;;;;23.90;46.48;101395.63;5044827;28;19947;-72
2023/06/30 00:23:47;;;;;;;;;;;;;;;23.90;46.48;101394.78;5070891;28;19923;-73
2023/06/30 00:26:12;;;;;;;;;;;;;;;23.89;46.36;101396.66;5048289;28;19913;-72
2023/06/30 00:28:37;;;;;;;;;;;;;;;23.88;46.49;101391.44;5069035;28;20450;-72
2023/06/30 00:31:03;;;;;;;;;;;;;;;23.88;46.27;101394.16;5065174;28;20392;-72
2023/06/30 00:33:28;;;;;;;;;;;;;;;23.87;46.24;101387.00;5057158;28;19923;-72
2023/06/30 00:35:53;;;;;;;;;;;;;;;23.87;46.43;101387.88;5072311;28;20019;-72
2023/06/30 00:38:18;;;;;;;;;;;;;;;23.86;46.19;101386.16;5056345;28;20327;-72
2023/06/30 00:40:44;;;;;;;;;;;;;;;23.85;46.28;101379.06;5064977;28;19912;-72
2023/06/30 00:43:09;;;;;;;;;;;;;;;23.84;46.37;101374.66;5065343;28;19995;-72
2023/06/30 00:45:34;;;;;;;;;;;;;;;23.84;46.35;101381.97;5069196;28;19913;-72
2023/06/30 00:47:59;;;;;;;;;;;;;;;23.85;46.03;101380.94;5053069;28;20346;-72
2023/06/30 00:50:25;;;;;;;;;;;;;;;23.83;46.29;101377.56;5073068;28;19912;-72
2023/06/30 00:52:50;;;;;;;;;;;;;;;23.82;46.02;101387.56;5046609;28;19920;-72
2023/06/30 00:55:16;;;;;;;;;;;;;;;23.81;46.10;101390.50;5049766;28;19920;-72
2023/06/30 00:57:41;;;;;;;;;;;;;;;23.81;46.21;101394.06;5071889;28;19913;-72
2023/06/30 01:00:10;;;;;;;;;;;;;;;23.80;46.34;101395.09;5039257;28;19913;-72
2023/06/30 01:02:36;;;;;;;;;;;;;;;23.80;46.27;101388.81;5060086;28;19984;-72
2023/06/30 01:05:25;;;;;;;;;;;;;;;23.78;46.24;101380.84;5063282;28;19920;-72
2023/06/30 01:08:04;;;;;;;;;;;;;;;23.78;46.13;101382.72;5051242;28;20381;-72
2023/06/30 01:10:30;;;;;;;;;;;;;;;23.77;46.08;101381.88;5048116;28;19920;-72
2023/06/30 01:12:55;;;;;;;;;;;;;;;23.77;46.09;101381.03;5067201;28;20015;-72
2023/06/30 01:15:21;;;;;;;;;;;;;;;23.76;45.94;101373.94;5068207;28;20007;-72
2023/06/30 01:18:02;;;;;;;;;;;;;;;23.76;45.92;101387.50;5053480;28;19920;-72
2023/06/30 01:20:32;;;;;;;;;;;;;;;23.74;45.82;101390.41;5043072;28;20278;-72
2023/06/30 01:23:12;;;;;;;;;;;;;;;23.73;45.80;101391.44;5041291;28;20332;-72
2023/06/30 01:25:37;;;;;;;;;;;;;;;23.72;45.80;101389.75;5067990;28;19980;-72
2023/06/30 01:28:03;;;;;;;;;;;;;;;23.72;45.75;101388.91;5044006;28;19912;-72
2023/06/30 01:30:31;;;;;;;;;;;;;;;23.71;45.79;101387.25;5075173;28;19919;-72
2023/06/30 01:32:58;;;;;;;;;;;;;;;23.71;45.74;101388.09;5059286;28;19924;-72
2023/06/30 01:35:23;;;;;;;;;;;;;;;23.69;45.92;101384.69;5038677;28;20319;-72
2023/06/30 01:37:48;;;;;;;;;;;;;;;23.68;45.90;101383.84;5065172;28;19956;-72
2023/06/30 01:40:14;;;;;;;;;;;;;;;23.68;45.83;101383.84;5049313;28;19924;-72
2023/06/30 01:42:39;;;;;;;;;;;;;;;23.67;45.66;101384.06;5048572;28;19938;-72
2023/06/30 01:45:05;;;;;;;;;;;;;;;23.66;45.81;101385.06;5051797;28;20422;-72
2023/06/30 01:47:30;;;;;;;;;;;;;;;23.66;45.69;101388.66;5044808;28;19913;-72
2023/06/30 01:49:55;;;;;;;;;;;;;;;23.65;45.83;101383.38;5045536;28;20385;-72
2023/06/30 01:52:20;;;;;;;;;;;;;;;23.64;45.91;101387.13;5068688;28;19928;-72
2023/06/30 01:54:46;;;;;;;;;;;;;;;23.64;45.82;101387.13;5055739;28;19913;-72
2023/06/30 01:57:11;;;;;;;;;;;;;;;23.63;45.57;101380.84;5076692;28;19923;-72
2023/06/30 01:59:36;;;;;;;;;;;;;;;23.62;45.89;101383.75;5044683;28;19927;-72
2023/06/30 02:02:01;;;;;;;;;;;;;;;23.61;45.77;101385.59;5064787;28;19916;-72
2023/06/30 02:04:27;;;;;;;;;;;;;;;23.60;45.85;101383.09;5070037;28;19913;-72
2023/06/30 02:06:55;;;;;;;;;;;;;;;23.60;45.52;101377.66;5045863;28;19913;-72
2023/06/30 02:09:20;;;;;;;;;;;;;;;23.58;45.87;101383.28;5067303;28;19920;-72
2023/06/30 02:11:45;;;;;;;;;;;;;;;23.58;45.57;101385.16;5066532;28;19919;-72
2023/06/30 02:14:10;;;;;;;;;;;;;;;23.58;45.82;101379.72;5065437;28;20083;-72
2023/06/30 02:16:35;;;;;;;;;;;;;;;23.55;45.65;101380.94;5062021;28;19921;-72
2023/06/30 02:19:01;;;;;;;;;;;;;;;23.55;45.59;101380.94;5072943;28;19922;-72
2023/06/30 02:21:26;;;;;;;;;;;;;;;23.55;45.55;101382.81;5057688;28;19921;-72
2023/06/30 02:23:51;;;;;;;;;;;;;;;23.54;45.69;101386.56;5074318;28;19913;-73
2023/06/30 02:26:16;;;;;;;;;;;;;;;23.53;45.62;101385.69;5066353;28;20020;-72
2023/06/30 02:28:41;;;;;;;;;;;;;;;23.52;45.54;101383.19;5058095;28;19917;-72
2023/06/30 02:31:07;;;;;;;;;;;;;;;23.52;45.38;101378.59;5071948;28;19924;-72
2023/06/30 02:33:32;;;;;;;;;;;;;;;23.51;45.57;101378.78;5059675;28;19916;-72
2023/06/30 02:35:57;;;;;;;;;;;;;;;23.50;45.40;101380.66;5065170;28;19944;-72
2023/06/30 02:38:22;;;;;;;;;;;;;;;23.50;45.46;101385.25;5065525;28;19913;-72
2023/06/30 02:40:47;;;;;;;;;;;;;;;23.48;45.38;101377.28;5067877;28;20347;-72
2023/06/30 02:43:13;;;;;;;;;;;;;;;23.48;45.50;101379.16;5062856;28;19913;-72
2023/06/30 02:45:38;;;;;;;;;;;;;;;23.47;45.13;101388.34;5052061;28;19916;-72
2023/06/30 02:48:03;;;;;;;;;;;;;;;23.46;45.25;101387.50;5061104;28;19924;-72
2023/06/30 02:50:29;;;;;;;;;;;;;;;23.44;45.54;101386.81;5066246;28;19981;-72
2023/06/30 02:52:54;;;;;;;;;;;;;;;23.43;45.38;101377.84;5069505;28;19924;-73
2023/06/30 02:55:20;;;;;;;;;;;;;;;23.43;45.22;101386.00;5051129;28;19978;-72
2023/06/30 02:57:45;;;;;;;;;;;;;;;23.41;45.13;101382.63;5072581;28;19913;-73
2023/06/30 03:00:10;;;;;;;;;;;;;;;23.41;45.15;101374.50;5060960;28;19917;-72
2023/06/30 03:02:36;;;;;;;;;;;;;;;23.40;45.16;101388.22;5063258;28;19913;-72
2023/06/30 03:05:01;;;;;;;;;;;;;;;23.40;45.41;101393.66;5067417;28;19913;-72
2023/06/30 03:07:26;;;;;;;;;;;;;;;23.39;45.23;101389.25;5063587;28;19917;-72
2023/06/30 03:09:51;;;;;;;;;;;;;;;23.38;45.35;101390.31;5061043;28;19923;-72
2023/06/30 03:12:16;;;;;;;;;;;;;;;23.37;45.22;101388.63;5067927;28;19986;-72
2023/06/30 03:14:41;;;;;;;;;;;;;;;23.36;45.16;101387.78;5064904;28;19924;-72
2023/06/30 03:17:07;;;;;;;;;;;;;;;23.35;45.16;101385.25;5059788;28;19955;-72
2023/06/30 03:19:32;;;;;;;;;;;;;;;23.34;45.25;101391.69;5071760;28;19917;-72
2023/06/30 03:21:57;;;;;;;;;;;;;;;23.34;45.10;101397.13;5057217;28;19917;-72
2023/06/30 03:24:22;;;;;;;;;;;;;;;23.33;45.11;101406.31;5068898;28;19912;-72
2023/06/30 03:26:48;;;;;;;;;;;;;;;23.32;44.93;101401.88;5047541;28;19912;-73
2023/06/30 03:29:13;;;;;;;;;;;;;;;23.31;45.02;101401.03;5059983;28;19920;-72
2023/06/30 03:31:38;;;;;;;;;;;;;;;23.31;45.03;101397.50;5071376;28;19913;-72
2023/06/30 03:34:03;;;;;;;;;;;;;;;23.29;44.94;101397.69;5061913;28;19927;-72
2023/06/30 03:36:29;;;;;;;;;;;;;;;23.28;45.17;101397.84;5049064;28;19917;-73
2023/06/30 03:38:54;;;;;;;;;;;;;;;23.27;45.15;101394.31;5046652;28;19913;-72
2023/06/30 03:41:19;;;;;;;;;;;;;;;23.26;44.92;101397.22;5067288;28;20707;-72
2023/06/30 03:43:44;;;;;;;;;;;;;;;23.26;45.08;101397.22;5056981;28;19920;-72
2023/06/30 03:46:11;;;;;;;;;;;;;;;23.25;44.87;101398.25;5072906;28;20381;-72
2023/06/30 03:48:36;;;;;;;;;;;;;;;23.24;44.71;101396.56;5042799;28;19964;-72
2023/06/30 03:51:02;;;;;;;;;;;;;;;23.23;44.82;101394.88;5065241;28;19939;-72
2023/06/30 03:53:27;;;;;;;;;;;;;;;23.21;44.88;101397.78;5067454;28;19921;-72
2023/06/30 03:55:52;;;;;;;;;;;;;;;23.21;44.81;101395.06;5056596;28;19917;-72
2023/06/30 03:58:17;;;;;;;;;;;;;;;23.20;44.76;101399.66;5068233;28;19916;-72
2023/06/30 04:00:43;;;;;;;;;;;;;;;23.19;44.58;101400.69;5060661;28;19917;-74
2023/06/30 04:03:08;;;;;;;;;;;;;;;23.19;44.96;101399.81;5033691;28;19993;-72
2023/06/30 04:05:33;;;;;;;;;;;;;;;23.18;44.75;101400.84;5046266;28;20393;-71
2023/06/30 04:07:58;;;;;;;;;;;;;;;23.17;44.73;101397.28;5053252;28;19945;-72
2023/06/30 04:10:24;;;;;;;;;;;;;;;23.17;45.02;101399.16;5057457;28;19917;-72
2023/06/30 04:12:49;;;;;;;;;;;;;;;23.16;44.85;101395.63;5069010;28;19931;-72
2023/06/30 04:15:14;;;;;;;;;;;;;;;23.15;44.73;101391.22;5064126;28;19924;-72
2023/06/30 04:17:39;;;;;;;;;;;;;;;23.15;44.85;101387.66;5055983;28;19928;-72
2023/06/30 04:20:09;;;;;;;;;;;;;;;23.14;44.77;101389.53;5071721;28;19912;-72
2023/06/30 04:22:35;;;;;;;;;;;;;;;23.14;44.86;101394.09;5056288;28;19963;-72
2023/06/30 04:25:01;;;;;;;;;;;;;;;23.12;44.89;101383.44;5070667;28;19916;-72
2023/06/30 04:27:26;;;;;;;;;;;;;;;23.12;44.58;101388.88;5063308;28;20036;-72
2023/06/30 04:29:51;;;;;;;;;;;;;;;23.12;44.58;101388.03;5061683;28;20381;-72
2023/06/30 04:32:16;;;;;;;;;;;;;;;23.11;44.86;101386.38;5047340;28;19927;-72
2023/06/30 04:34:41;;;;;;;;;;;;;;;23.11;44.52;101384.50;5063638;28;19913;-72
2023/06/30 04:37:07;;;;;;;;;;;;;;;23.11;44.45;101386.38;5048646;28;19912;-72
2023/06/30 04:39:32;;;;;;;;;;;;;;;23.10;44.86;101381.94;5051002;28;19956;-72
2023/06/30 04:42:01;;;;;;;;;;;;;;;23.09;44.67;101381.09;5067155;28;19916;-72
2023/06/30 04:44:26;;;;;;;;;;;;;;;23.09;44.58;101374.84;5054174;28;20026;-72
2023/06/30 04:46:51;;;;;;;;;;;;;;;23.08;44.79;101375.88;5057005;28;20354;-72
2023/06/30 04:49:16;;;;;;;;;;;;;;;23.07;44.40;101368.78;5058269;28;20393;-72
2023/06/30 04:51:41;;;;;;;;;;;;;;;23.07;44.56;101368.78;5063796;28;19934;-72
2023/06/30 04:54:07;;;;;;;;;;;;;;;23.06;44.60;101372.47;5053279;28;20312;-72
2023/06/30 04:56:32;;;;;;;;;;;;;;;23.06;44.58;101370.63;5062390;28;19912;-72
2023/06/30 04:58:57;;;;;;;;;;;;;;;23.07;44.38;101379.63;5063418;28;19975;-72
2023/06/30 05:01:25;;;;;;;;;;;;;;;23.06;44.60;101380.63;5062677;28;19912;-72
2023/06/30 05:03:50;;;;;;;;;;;;;;;23.05;44.24;101382.50;5044760;28;19924;-72
2023/06/30 05:06:16;;;;;;;;;;;;;;;23.05;44.34;101381.66;5061137;28;19980;-72
2023/06/30 05:08:41;;;;;;;;;;;;;;;23.04;44.53;101386.25;5069114;28;19913;-72
2023/06/30 05:11:06;;;;;;;;;;;;;;;23.04;44.50;101382.69;5054137;28;19939;-72
2023/06/30 05:13:31;;;;;;;;;;;;;;;23.04;44.66;101388.13;5068032;28;19916;-72
2023/06/30 05:15:56;;;;;;;;;;;;;;;23.03;44.44;101387.28;5062611;28;19917;-72
2023/06/30 05:18:21;;;;;;;;;;;;;;;23.04;44.66;101388.13;5058875;28;19919;-72
2023/06/30 05:20:47;;;;;;;;;;;;;;;22.55;44.44;101307.19;5070762;28;19916;-72
2023/06/30 05:23:12;;;;;;;;;;;;;;;23.03;44.43;101392.69;5056953;28;19917;-71
2023/06/30 05:25:37;;;;;;;;;;;;;;;23.02;44.42;101391.00;5064953;28;19919;-72
2023/06/30 05:28:03;;;;;;;;;;;;;;;23.02;44.67;101384.72;5062745;28;19964;-72
2023/06/30 05:30:28;;;;;;;;;;;;;;;23.02;44.53;101385.56;5067073;28;19913;-72
2023/06/30 05:32:53;;;;;;;;;;;;;;;23.02;44.47;101391.00;5065865;28;19921;-72
2023/06/30 05:35:18;;;;;;;;;;;;;;;23.02;44.50;101390.16;5070080;28;19916;-72
2023/06/30 05:37:44;;;;;;;;;;;;;;;23.02;44.49;101392.88;5062127;28;19994;-72
2023/06/30 05:40:09;;;;;;;;;;;;;;;23.01;44.42;101386.59;5068106;28;19924;-72
2023/06/30 05:42:34;;;;;;;;;;;;;;;23.02;44.48;101392.88;5069058;28;19913;-71
2023/06/30 05:45:00;;;;;;;;;;;;;;;23.02;44.43;101385.56;5054923;28;19925;-71
2023/06/30 05:47:25;;;;;;;;;;;;;;;23.02;44.36;101387.44;5075063;28;19956;-71
2023/06/30 05:49:50;;;;;;;;;;;;;;;23.02;44.41;101387.44;5061575;28;19988;-71
2023/06/30 05:52:15;;;;;;;;;;;;;;;23.02;44.31;101390.16;5066380;28;19944;-71
2023/06/30 05:54:41;;;;;;;;;;;;;;;23.02;44.30;101393.69;5065756;28;20455;-71
2023/06/30 05:57:06;;;;;;;;;;;;;;;23.02;44.49;101404.56;5053020;28;20287;-71
2023/06/30 05:59:31;;;;;;;;;;;;;;;23.01;44.57;101402.88;5063466;28;19927;-71
2023/06/30 06:01:56;;;;;;;;;;;;;;;23.01;44.27;101399.31;5067335;28;19920;-71
2023/06/30 06:04:22;;;;;;;;;;;;;;;23.02;44.19;101404.56;5064278;28;19913;-71
2023/06/30 06:06:47;;;;;;;;;;;;;;;23.02;44.54;101404.56;5040839;28;20390;-72
2023/06/30 06:09:12;;;;;;;;;;;;;;;23.02;44.37;101407.25;5073467;28;20431;-72
2023/06/30 06:11:38;;;;;;;;;;;;;;;23.03;44.41;101408.13;5040502;28;20266;-73
2023/06/30 06:14:03;;;;;;;;;;;;;;;23.02;44.39;101406.44;5072616;28;19924;-71
2023/06/30 06:16:29;;;;;;;;;;;;;;;23.03;44.30;101403.56;5064937;28;19925;-71
2023/06/30 06:18:54;;;;;;;;;;;;;;;23.02;44.38;101401.00;5058764;28;19917;-71
2023/06/30 06:21:20;;;;;;;;;;;;;;;23.02;44.31;101404.56;5071279;28;19909;-71
2023/06/30 06:23:45;;;;;;;;;;;;;;;23.02;44.17;101409.97;5061593;28;19913;-71
2023/06/30 06:26:10;;;;;;;;;;;;;;;23.03;44.42;101410.84;5064087;28;19912;-72
2023/06/30 06:28:35;;;;;;;;;;;;;;;23.03;44.07;101405.41;5065427;28;19924;-72
2023/06/30 06:31:00;;;;;;;;;;;;;;;23.03;44.29;101405.41;5071051;28;19917;-72
2023/06/30 06:33:26;;;;;;;;;;;;;;;23.03;44.58;101408.97;5059798;28;19916;-72
2023/06/30 06:35:51;;;;;;;;;;;;;;;23.03;44.16;101408.13;5071675;28;19943;-72
2023/06/30 06:38:17;;;;;;;;;;;;;;;23.03;44.31;101408.13;5059928;28;19920;-71
2023/06/30 06:40:43;;;;;;;;;;;;;;;23.03;44.35;101411.69;5044271;28;19965;-71
2023/06/30 06:43:08;;;;;;;;;;;;;;;23.03;44.47;101410.84;5067965;28;19936;-72
2023/06/30 06:45:33;;;;;;;;;;;;;;;23.03;44.12;101408.97;5057913;28;19913;-71
2023/06/30 06:48:17;;;;;;;;;;;;;;;23.04;44.35;101407.94;5041151;28;19923;-72
2023/06/30 06:50:43;;;;;;;;;;;;;;;23.04;44.19;101399.81;5058727;28;19973;-71
2023/06/30 06:53:08;;;;;;;;;;;;;;;23.05;44.28;101398.78;5062946;28;19917;-72
2023/06/30 06:55:33;;;;;;;;;;;;;;;23.05;44.39;101398.78;5065589;28;19920;-71
2023/06/30 06:57:58;;;;;;;;;;;;;;;23.06;44.03;101391.47;5066724;28;19920;-72
2023/06/30 07:00:24;;;;;;;;;;;;;;;23.04;44.31;101388.94;5043644;28;19924;-71
2023/06/30 07:02:49;;;;;;;;;;;;;;;23.06;44.15;101400.44;5070171;28;20634;-71
2023/06/30 07:05:14;;;;;;;;;;;;;;;23.06;44.26;101400.44;5051680;28;19919;-72
2023/06/30 07:07:39;;;;;;;;;;;;;;;23.07;44.05;101404.88;5061050;28;19924;-72
2023/06/30 07:10:05;;;;;;;;;;;;;;;23.07;44.36;101409.44;5069821;28;19923;-72
2023/06/30 07:12:30;;;;;;;;;;;;;;;23.07;44.32;101407.59;5053206;28;19921;-71
2023/06/30 07:14:56;;;;;;;;;;;;;;;23.06;44.13;101405.88;5074377;28;19917;-72
2023/06/30 07:17:21;;;;;;;;;;;;;;;23.09;44.10;101412.81;5061912;28;19924;-71
2023/06/30 07:19:46;;;;;;;;;;;;;;;23.08;44.14;101405.72;5061843;28;20011;-71
2023/06/30 07:22:11;;;;;;;;;;;;;;;23.08;44.17;101409.25;5068570;28;19913;-71
2023/06/30 07:24:36;;;;;;;;;;;;;;;23.09;44.27;101410.09;5051926;28;19916;-72
2023/06/30 07:27:02;;;;;;;;;;;;;;;23.09;44.20;101401.97;5057438;28;19979;-71
2023/06/30 07:29:27;;;;;;;;;;;;;;;23.10;44.25;101406.34;5051050;28;20361;-72
2023/06/30 07:31:52;;;;;;;;;;;;;;;23.09;44.29;101400.09;5065064;28;19955;-72
2023/06/30 07:34:19;;;;;;;;;;;;;;;23.09;44.20;101405.50;5057451;28;19943;-72
2023/06/30 07:36:47;;;;;;;;;;;;;;;23.10;44.37;101396.34;5059979;28;19914;-72
2023/06/30 07:39:12;;;;;;;;;;;;;;;23.10;44.42;101407.19;5057252;28;19967;-72
2023/06/30 07:41:37;;;;;;;;;;;;;;;23.11;44.05;101399.94;5067013;28;19913;-71
2023/06/30 07:44:03;;;;;;;;;;;;;;;23.11;44.37;101400.75;5063963;28;19936;-72
2023/06/30 07:46:29;;;;;;;;;;;;;;;23.11;44.19;101403.47;5048875;28;19912;-71
2023/06/30 07:48:54;;;;;;;;;;;;;;;23.12;44.41;101393.47;5065805;28;19955;-71
2023/06/30 07:51:20;;;;;;;;;;;;;;;23.13;44.55;101392.44;5060129;28;19917;-71
2023/06/30 07:53:45;;;;;;;;;;;;;;;23.13;44.63;101395.97;5060912;28;20394;-72
2023/06/30 07:56:10;;;;;;;;;;;;;;;23.13;44.56;101395.13;5050504;28;19979;-71
2023/06/30 07:58:35;;;;;;;;;;;;;;;23.14;44.58;101381.38;5068112;28;20321;-72
2023/06/30 08:01:01;;;;;;;;;;;;;;;23.15;44.61;101395.78;5054436;28;19936;-71
2023/06/30 08:03:26;;;;;;;;;;;;;;;23.14;44.89;101397.66;5052981;28;19938;-72
2023/06/30 08:05:51;;;;;;;;;;;;;;;23.16;44.86;101392.06;5061010;28;19913;-72
2023/06/30 08:08:16;;;;;;;;;;;;;;;23.15;44.96;101393.94;5061450;28;20553;-71
2023/06/30 08:10:41;;;;;;;;;;;;;;;23.15;44.97;101396.66;5069175;28;19938;-72
2023/06/30 08:13:07;;;;;;;;;;;;;;;23.16;44.85;101394.78;5056659;28;19920;-72
2023/06/30 08:15:32;;;;;;;;;;;;;;;23.15;44.92;101393.06;5053623;28;19917;-72
2023/06/30 08:17:57;;;;;;;;;;;;;;;23.14;45.08;101392.22;5042724;28;19925;-71
2023/06/30 08:20:22;;;;;;;;;;;;;;;23.15;45.05;101393.06;5064196;28;19924;-72
2023/06/30 08:22:47;;;;;;;;;;;;;;;23.14;44.78;101392.22;5065696;28;19936;-72
2023/06/30 08:25:12;;;;;;;;;;;;;;;23.14;44.69;101397.66;5065184;28;19919;-71
2023/06/30 08:27:38;;;;;;;;;;;;;;;23.13;44.85;101401.41;5039571;28;19912;-71
2023/06/30 08:30:03;;;;;;;;;;;;;;;23.13;44.92;101404.13;5068377;28;19916;-71
2023/06/30 08:32:28;;;;;;;;;;;;;;;23.13;44.85;101397.84;5064881;28;19914;-72
2023/06/30 08:34:53;;;;;;;;;;;;;;;23.12;44.80;101404.31;5052325;28;19976;-71
2023/06/30 08:37:19;;;;;;;;;;;;;;;23.12;44.88;101398.88;5073305;28;19943;-71
2023/06/30 08:39:44;;;;;;;;;;;;;;;23.12;44.79;101399.72;5056832;28;19913;-72
2023/06/30 08:42:09;;;;;;;;;;;;;;;23.12;44.91;101401.59;5065623;28;19916;-72
2023/06/30 08:44:34;;;;;;;;;;;;;;;23.12;45.15;101398.88;5064946;28;19962;-71
2023/06/30 08:47:00;;;;;;;;;;;;;;;23.11;44.80;101398.06;5043420;28;20286;-72
2023/06/30 08:49:25;;;;;;;;;;;;;;;23.12;44.85;101399.72;5045456;28;19913;-72
2023/06/30 08:51:59;;;;;;;;;;;;;;;23.12;44.93;101385.31;5063399;28;19913;-72
2023/06/30 08:54:25;;;;;;;;;;;;;;;23.13;44.73;101389.72;5044823;28;19924;-72
2023/06/30 08:56:51;;;;;;;;;;;;;;;23.12;44.74;101388.88;5036273;28;19912;-72
2023/06/30 08:59:16;;;;;;;;;;;;;;;23.13;44.63;101387.00;5066831;28;19919;-72
2023/06/30 09:01:42;;;;;;;;;;;;;;;23.13;44.76;101381.56;5052187;28;19913;-72
2023/06/30 09:04:08;;;;;;;;;;;;;;;23.14;44.78;101380.53;5056953;28;19940;-71
2023/06/30 09:06:33;;;;;;;;;;;;;;;23.15;44.55;101382.22;5062471;28;19917;-72
2023/06/30 09:08:59;;;;;;;;;;;;;;;23.15;44.67;101371.38;5045860;28;19917;-72
2023/06/30 09:11:25;;;;;;;;;;;;;;;23.14;44.41;101365.09;5053201;28;19912;-72
2023/06/30 09:13:50;;;;;;;;;;;;;;;23.15;44.60;101371.38;5044045;28;19921;-71
2023/06/30 09:16:17;;;;;;;;;;;;;;;23.15;44.40;101379.50;5039449;28;19921;-72
2023/06/30 09:18:43;;;;;;;;;;;;;;;23.14;44.60;101378.66;5051019;28;19913;-72
2023/06/30 09:21:09;;;;;;;;;;;;;;;23.16;44.53;101373.06;5053473;28;19940;-72
2023/06/30 09:23:34;;;;;;;;;;;;;;;23.16;44.73;101375.78;5045826;28;19913;-72
2023/06/30 09:26:00;;;;;;;;;;;;;;;23.15;44.47;101361.38;5071263;28;19916;-72
2023/06/30 09:28:25;;;;;;;;;;;;;;;23.16;44.58;101360.34;5038717;28;19952;-72
2023/06/30 09:30:50;;;;;;;;;;;;;;;23.17;44.69;101362.03;5070929;28;19919;-72
2023/06/30 09:33:16;;;;;;;;;;;;;;;23.18;44.70;101365.59;5065963;28;19917;-72
2023/06/30 09:35:43;;;;;;;;;;;;;;;23.17;44.53;101363.91;5059155;28;19913;-71
2023/06/30 09:38:14;;;;;;;;;;;;;;;23.17;44.36;101356.59;5073533;28;19913;-72
2023/06/30 09:40:41;;;;;;;;;;;;;;;23.18;44.63;101350.16;5062989;28;19917;-72
2023/06/30 09:43:06;;;;;;;;;;;;;;;23.18;44.41;101354.72;5049316;28;19944;-72
2023/06/30 09:45:32;;;;;;;;;;;;;;;23.19;44.35;101360.00;5064739;28;19917;-72
2023/06/30 09:47:57;;;;;;;;;;;;;;;23.19;44.28;101362.72;5067751;28;19917;-72
2023/06/30 09:50:29;;;;;;;;;;;;;;;23.21;44.26;101354.38;5061824;28;19912;-72
2023/06/30 09:52:55;;;;;;;;;;;;;;;23.21;44.61;101346.22;5049417;28;19985;-72
2023/06/30 09:55:20;;;;;;;;;;;;;;;23.21;44.40;101346.22;5059236;28;19921;-72
2023/06/30 09:57:46;;;;;;;;;;;;;;;23.21;44.37;101346.22;5068491;28;19913;-72
2023/06/30 10:00:14;;;;;;;;;;;;;;;23.23;44.45;101340.59;5067745;28;19941;-72
2023/06/30 10:02:40;;;;;;;;;;;;;;;23.23;44.59;101343.31;5059058;28;20337;-71
2023/06/30 10:05:14;;;;;;;;;;;;;;;23.24;44.21;101343.16;5057177;28;19913;-72
2023/06/30 10:07:40;;;;;;;;;;;;;;;23.23;44.52;101346.88;5044111;28;19916;-72
2023/06/30 10:10:06;;;;;;;;;;;;;;;23.25;44.31;101344.00;5051686;28;19932;-72
2023/06/30 10:12:32;;;;;;;;;;;;;;;23.25;44.38;101341.28;5048475;28;19937;-71
2023/06/30 10:14:57;;;;;;;;;;;;;;;23.26;44.41;101337.53;5064337;28;19996;-72
2023/06/30 10:17:22;;;;;;;;;;;;;;;23.26;44.31;101337.53;5063168;28;19932;-71
2023/06/30 10:19:48;;;;;;;;;;;;;;;23.27;44.50;101331.91;5066140;28;19916;-72
2023/06/30 10:22:13;;;;;;;;;;;;;;;23.28;44.66;101332.75;5061266;28;19917;-72
2023/06/30 10:24:41;;;;;;;;;;;;;;;23.27;44.31;101331.91;5069762;28;20335;-71
2023/06/30 10:27:07;;;;;;;;;;;;;;;23.28;44.40;101338.16;5069637;28;19919;-72
2023/06/30 10:29:33;;;;;;;;;;;;;;;23.27;44.56;101333.78;5038662;28;19913;-72
2023/06/30 10:32:01;;;;;;;;;;;;;;;23.28;44.45;101328.19;5059237;28;19924;-72
2023/06/30 10:34:29;;;;;;;;;;;;;;;23.28;44.72;101324.59;5061828;28;19917;-72
2023/06/30 10:36:55;;;;;;;;;;;;;;;23.30;44.38;101325.28;5050657;28;19917;-72
2023/06/30 10:39:20;;;;;;;;;;;;;;;23.30;44.32;101328.81;5067610;28;20019;-72
2023/06/30 10:41:46;;;;;;;;;;;;;;;23.31;44.64;101318.81;5050866;28;19920;-72
2023/06/30 10:44:11;;;;;;;;;;;;;;;23.33;44.58;101324.91;5064048;28;19944;-72
2023/06/30 10:46:44;;;;;;;;;;;;;;;23.33;44.38;101325.75;5067574;28;19919;-71
2023/06/30 10:49:19;;;;;;;;;;;;;;;23.34;44.56;101318.44;5043066;28;19916;-72
2023/06/30 10:51:46;;;;;;;;;;;;;;;23.34;44.56;101315.72;5066592;28;19923;-71
2023/06/30 10:54:17;;;;;;;;;;;;;;;23.36;44.50;101308.22;5069892;28;19925;-72
2023/06/30 10:56:42;;;;;;;;;;;;;;;23.36;44.38;101317.25;5052375;28;19913;-71
2023/06/30 10:59:08;;;;;;;;;;;;;;;23.36;44.56;101311.81;5052699;28;19922;-72
2023/06/30 11:01:34;;;;;;;;;;;;;;;23.37;44.61;101309.94;5041015;28;20003;-71
2023/06/30 11:04:00;;;;;;;;;;;;;;;23.36;44.49;101309.09;5044040;28;20361;-71
2023/06/30 11:06:25;;;;;;;;;;;;;;;23.36;44.68;101310.94;5055237;28;19963;-72
2023/06/30 11:09:00;;;;;;;;;;;;;;;23.37;44.60;101309.94;5045229;28;19917;-72
2023/06/30 11:11:27;;;;;;;;;;;;;;;23.36;44.55;101308.22;5063949;28;19923;-72
2023/06/30 11:14:12;;;;;;;;;;;;;;;23.36;44.61;101305.50;5066557;28;19921;-72
2023/06/30 11:16:56;;;;;;;;;;;;;;;23.36;44.31;101310.94;5059360;28;19921;-71
2023/06/30 11:19:24;;;;;;;;;;;;;;;23.35;44.45;101312.81;5070101;28;19913;-72
2023/06/30 11:22:08;;;;;;;;;;;;;;;23.35;44.51;101307.38;5066492;28;19947;-72
2023/06/30 11:24:33;;;;;;;;;;;;;;;23.36;44.51;101300.97;5057352;28;19913;-72
2023/06/30 11:26:59;;;;;;;;;;;;;;;23.37;44.53;101313.47;5072499;28;19921;-72
2023/06/30 11:29:25;;;;;;;;;;;;;;;23.39;44.54;101305.97;5033361;28;19920;-71
2023/06/30 11:31:50;;;;;;;;;;;;;;;23.42;44.24;101312.91;5054139;28;19920;-72
2023/06/30 11:34:15;;;;;;;;;;;;;;;23.44;44.46;101300.00;5046566;28;19921;-72
2023/06/30 11:36:40;;;;;;;;;;;;;;;23.44;44.39;101295.41;5062796;28;19917;-72
2023/06/30 11:39:05;;;;;;;;;;;;;;;23.45;44.33;101294.38;5066580;28;19913;-72
2023/06/30 11:41:32;;;;;;;;;;;;;;;23.46;44.40;101289.81;5065311;28;19916;-72
2023/06/30 11:43:58;;;;;;;;;;;;;;;23.47;44.25;101293.34;5060435;28;19921;-72
2023/06/30 11:46:23;;;;;;;;;;;;;;;23.46;44.59;101278.94;5046246;28;20016;-72
2023/06/30 11:48:49;;;;;;;;;;;;;;;23.47;44.52;101285.22;5050713;28;19912;-71
2023/06/30 11:51:14;;;;;;;;;;;;;;;23.47;44.23;101280.63;5053825;28;19913;-72
2023/06/30 11:53:42;;;;;;;;;;;;;;;23.48;44.18;101278.75;5072975;28;19921;-72
2023/06/30 11:56:08;;;;;;;;;;;;;;;23.48;44.15;101282.28;5034835;28;19920;-72
2023/06/30 11:58:33;;;;;;;;;;;;;;;23.50;44.17;101280.25;5063056;28;19912;-72
2023/06/30 12:00:58;;;;;;;;;;;;;;;23.51;44.21;101284.63;5068205;28;19920;-72
2023/06/30 12:03:23;;;;;;;;;;;;;;;23.53;44.35;101274.41;5060237;28;19982;-72
2023/06/30 12:05:55;;;;;;;;;;;;;;;23.56;44.17;101273.22;5064499;28;19920;-72
2023/06/30 12:08:20;;;;;;;;;;;;;;;23.58;44.25;101273.88;5044059;28;19921;-72
2023/06/30 12:10:47;;;;;;;;;;;;;;;23.60;44.49;101272.63;5063673;28;19920;-72
2023/06/30 12:13:12;;;;;;;;;;;;;;;23.61;44.11;101270.75;5045815;28;19943;-72
2023/06/30 12:15:37;;;;;;;;;;;;;;;23.62;44.29;101273.28;5071261;28;19917;-72
2023/06/30 12:18:04;;;;;;;;;;;;;;;23.64;44.45;101279.38;5036946;28;19932;-72
2023/06/30 12:20:34;;;;;;;;;;;;;;;23.64;44.27;101275.81;5071216;28;19917;-72
2023/06/30 12:22:59;;;;;;;;;;;;;;;23.66;44.32;101268.34;5062447;28;19920;-72
2023/06/30 12:25:26;;;;;;;;;;;;;;;23.67;44.39;101270.88;5060164;28;19913;-72
2023/06/30 12:27:52;;;;;;;;;;;;;;;23.69;44.15;101263.38;5069901;28;19917;-72
2023/06/30 12:30:18;;;;;;;;;;;;;;;23.72;44.48;101261.31;5058528;28;19912;-72